Time;durP1;ratioP1;P1;durP2;ratioP2;P2;SDS_P1;SDS_P2;PMS_P1;PMS_P2;Temp;Humidity;BMP_temperature;BMP_pressure;BME280_temperature;BME280_humidity;BME280_pressure;Samples;Min_cycle;Max_cycle;Signal;HPM_P1;HPM_P2
2022/11/10 00:03:12;;;;;;;7.28;2.58;;;;;;;-145.48;100.00;64539.38;6050348;29;20084;-94
2022/11/10 00:06:33;;;;;;;8.02;2.33;;;;;;;-145.48;100.00;64539.38;6040643;29;20049;-94
2022/11/10 00:09:54;;;;;;;8.98;3.38;;;;;;;-145.48;100.00;64539.38;6032858;29;20519;-94
2022/11/10 00:13:14;;;;;;;;;;;;;;;-145.48;100.00;64539.38;6053669;29;20060;-94
2022/11/10 00:20:13;;;;;;;6.88;3.05;;;;;;;-145.48;100.00;64539.38;6033618;29;20053;-94
2022/11/10 00:23:33;;;;;;;6.85;2.80;;;;;;;-145.48;100.00;64539.38;6037109;29;20060;-94
2022/11/10 00:26:54;;;;;;;7.75;3.05;;;;;;;-145.48;100.00;64539.38;6029526;29;20077;-94
2022/11/10 00:30:15;;;;;;;;;;;;;;;-145.48;100.00;64539.38;6026354;29;20444;-94
2022/11/10 00:33:40;;;;;;;9.18;3.17;;;;;;;-145.48;100.00;64539.38;6042720;29;19931;-94
2022/11/10 00:37:01;;;;;;;8.60;3.08;;;;;;;-145.48;100.00;64539.38;6030187;29;20139;-94
2022/11/10 00:40:21;;;;;;;4.43;2.95;;;;;;;-145.48;100.00;64539.38;6032543;29;20072;-94
2022/11/10 00:43:42;;;;;;;6.55;2.80;;;;;;;-145.48;100.00;64539.38;6048675;29;20329;-94
2022/11/10 00:47:02;;;;;;;8.35;3.03;;;;;;;-145.48;100.00;64539.38;6047487;29;20080;-93
2022/11/10 00:50:23;;;;;;;7.68;4.35;;;;;;;-145.48;100.00;64539.38;6052557;29;20084;-94
2022/11/10 00:53:43;;;;;;;6.10;3.20;;;;;;;-145.48;100.00;64539.38;6054665;29;20049;-94
2022/11/10 00:57:03;;;;;;;9.85;3.72;;;;;;;-145.48;100.00;64539.38;6043364;29;20045;-94
2022/11/10 01:00:24;;;;;;;6.53;4.05;;;;;;;-145.48;100.00;64539.38;6056697;29;20060;-94
2022/11/10 01:03:45;;;;;;;10.90;3.80;;;;;;;-145.48;100.00;64539.38;6036854;29;20469;-94
2022/11/10 01:07:05;;;;;;;6.75;3.75;;;;;;;-145.48;100.00;64539.38;6042103;29;20551;-94
2022/11/10 01:10:26;;;;;;;9.10;3.80;;;;;;;-145.48;100.00;64539.38;6035606;29;20068;-93
2022/11/10 01:13:49;;;;;;;;;;;;;;;-145.48;100.00;64539.38;6052888;29;20064;-93
2022/11/10 01:17:10;;;;;;;7.05;4.00;;;;;;;-145.48;100.00;64539.38;6056773;29;19940;-94
2022/11/10 01:24:40;;;;;;;8.60;4.00;;;;;;;-145.48;100.00;64539.38;6044689;29;20072;-94
2022/11/10 01:28:00;;;;;;;6.75;4.07;;;;;;;-145.48;100.00;64539.38;6053303;29;20092;-94
2022/11/10 01:31:21;;;;;;;6.43;3.55;;;;;;;-145.48;100.00;64539.38;6034489;29;20520;-94
2022/11/10 01:34:41;;;;;;;8.70;4.15;;;;;;;-145.48;100.00;64539.38;6047959;29;20056;-94
2022/11/10 01:38:02;;;;;;;7.75;4.05;;;;;;;-145.48;100.00;64539.38;6045352;29;20052;-94
2022/11/10 01:41:22;;;;;;;9.95;4.32;;;;;;;-145.48;100.00;64539.38;6063593;29;20551;-95
2022/11/10 01:45:21;;;;;;;8.48;4.35;;;;;;;-145.48;100.00;64539.38;6033225;29;20519;-94
2022/11/10 01:48:48;;;;;;;7.43;4.00;;;;;;;-145.48;100.00;64539.38;6049223;29;20076;-95
2022/11/10 01:52:13;;;;;;;8.55;4.53;;;;;;;-145.48;100.00;64539.38;6064030;29;20061;-95
2022/11/10 01:55:36;;;;;;;10.02;4.40;;;;;;;-145.48;100.00;64539.38;6062272;29;20041;-94
2022/11/10 01:59:02;;;;;;;12.07;4.93;;;;;;;-145.48;100.00;64539.38;6047072;29;20056;-94
2022/11/10 02:02:35;;;;;;;7.25;4.57;;;;;;;-145.48;100.00;64539.38;6031812;29;20516;-95
2022/11/10 02:05:55;;;;;;;6.15;4.28;;;;;;;-145.48;100.00;64539.38;6056519;29;20111;-94
2022/11/10 02:09:16;;;;;;;14.52;5.45;;;;;;;-145.48;100.00;64539.38;6039228;29;20618;-94
2022/11/10 02:12:36;;;;;;;11.95;5.50;;;;;;;-145.48;100.00;64539.38;6029615;29;20163;-94
2022/11/10 02:15:57;;;;;;;11.88;5.32;;;;;;;-145.48;100.00;64539.38;6048184;29;20052;-94
2022/11/10 02:19:23;;;;;;;11.40;4.93;;;;;;;-145.48;100.00;64539.38;6039580;29;20053;-94
2022/11/10 02:22:44;;;;;;;7.75;4.60;;;;;;;-145.48;100.00;64539.38;6025020;29;20053;-94
2022/11/10 02:26:05;;;;;;;9.43;4.80;;;;;;;-145.48;100.00;64539.38;6048597;29;20064;-94
2022/11/10 02:29:26;;;;;;;7.82;5.55;;;;;;;-145.48;100.00;64539.38;6041044;29;20071;-94
2022/11/10 02:32:46;;;;;;;16.52;5.70;;;;;;;-145.48;100.00;64539.38;6041877;29;20057;-94
2022/11/10 02:36:07;;;;;;;16.50;6.00;;;;;;;-145.48;100.00;64539.38;6024601;29;20053;-94
2022/11/10 02:39:27;;;;;;;12.20;5.30;;;;;;;-145.48;100.00;64539.38;6037681;29;20054;-94
2022/11/10 02:42:48;;;;;;;7.82;5.15;;;;;;;-145.48;100.00;64539.38;6027231;29;20541;-94
2022/11/10 02:46:08;;;;;;;11.43;4.88;;;;;;;-145.48;100.00;64539.38;6036838;29;20049;-94
2022/11/10 02:49:29;;;;;;;11.50;6.00;;;;;;;-145.48;100.00;64539.38;6041685;29;20053;-94
2022/11/10 02:52:49;;;;;;;8.38;6.05;;;;;;;-145.48;100.00;64539.38;6040243;29;20049;-94
2022/11/10 02:56:09;;;;;;;12.43;5.90;;;;;;;-145.48;100.00;64539.38;6059841;29;20048;-94
2022/11/10 02:59:30;;;;;;;11.38;5.97;;;;;;;-145.48;100.00;64539.38;6045338;29;20057;-94
2022/11/10 03:03:01;;;;;;;12.20;5.88;;;;;;;-145.48;100.00;64539.38;6052202;29;20052;-94
2022/11/10 03:06:21;;;;;;;9.52;5.90;;;;;;;-145.48;100.00;64539.38;6044541;29;20867;-94
2022/11/10 03:09:41;;;;;;;12.48;5.70;;;;;;;-145.48;100.00;64539.38;6026481;29;20508;-94
2022/11/10 03:13:02;;;;;;;12.32;5.60;;;;;;;-145.48;100.00;64539.38;6046795;29;20057;-94
2022/11/10 03:16:23;;;;;;;;;;;;;;;-145.48;100.00;64539.38;6047628;29;20486;-95
2022/11/10 03:19:43;;;;;;;11.48;5.65;;;;;;;-145.48;100.00;64539.38;6067260;29;19927;-94
2022/11/10 03:23:04;;;;;;;10.77;6.20;;;;;;;-145.48;100.00;64539.38;6049662;29;20464;-93
2022/11/10 03:26:25;;;;;;;9.55;5.90;;;;;;;-145.48;100.00;64539.38;6062485;29;20052;-94
2022/11/10 03:29:45;;;;;;;15.70;6.38;;;;;;;-145.48;100.00;64539.38;6057773;29;20086;-94
2022/11/10 03:33:06;;;;;;;12.53;6.93;;;;;;;-145.48;100.00;64539.38;6052630;29;20056;-94
2022/11/10 03:36:26;;;;;;;9.13;6.38;;;;;;;-145.48;100.00;64539.38;6040609;29;20652;-94
2022/11/10 03:39:46;;;;;;;15.02;6.97;;;;;;;-145.48;100.00;64539.38;6047541;29;20575;-94
2022/11/10 03:43:10;;;;;;;12.10;6.45;;;;;;;-145.48;100.00;64539.38;6041596;29;20515;-95
2022/11/10 03:46:31;;;;;;;12.85;7.28;;;;;;;-145.48;100.00;64539.38;6036022;29;20095;-94
2022/11/10 03:49:51;;;;;;;15.98;7.22;;;;;;;-145.48;100.00;64539.38;6053958;29;20056;-94
2022/11/10 03:53:12;;;;;;;11.45;6.88;;;;;;;-145.48;100.00;64539.38;6050216;29;20445;-94
2022/11/10 03:56:32;;;;;;;12.48;7.00;;;;;;;-145.48;100.00;64539.38;6043758;29;20061;-94
2022/11/10 03:59:53;;;;;;;12.00;6.68;;;;;;;-145.48;100.00;64539.38;6045661;29;20573;-94
2022/11/10 04:03:13;;;;;;;10.55;7.32;;;;;;;-145.48;100.00;64539.38;6047132;29;20056;-94
2022/11/10 04:10:12;;;;;;;14.95;8.30;;;;;;;-145.48;100.00;64539.38;6045633;29;20612;-94
2022/11/10 04:17:11;;;;;;;15.15;7.68;;;;;;;-145.48;100.00;64539.38;6036519;29;20159;-94
2022/11/10 04:20:32;;;;;;;13.02;7.72;;;;;;;-145.48;100.00;64539.38;6034259;29;20049;-95
2022/11/10 04:23:52;;;;;;;14.05;8.30;;;;;;;-145.48;100.00;64539.38;6040271;29;20587;-95
2022/11/10 04:27:12;;;;;;;12.82;8.05;;;;;;;-145.48;100.00;64539.38;6032463;29;20645;-95
2022/11/10 04:30:33;;;;;;;15.80;8.68;;;;;;;-145.48;100.00;64539.38;6040457;29;20484;-94
2022/11/10 04:33:54;;;;;;;12.93;7.72;;;;;;;-145.48;100.00;64539.38;6036562;29;20326;-95
2022/11/10 04:37:14;;;;;;;;;;;;;;;-145.48;100.00;64539.38;6044788;29;20419;-94
2022/11/10 04:40:35;;;;;;;13.77;8.10;;;;;;;-145.48;100.00;64539.38;6041708;29;20671;-95
2022/11/10 04:43:56;;;;;;;12.05;7.88;;;;;;;-145.48;100.00;64539.38;6043428;29;20501;-95
2022/11/10 04:47:16;;;;;;;;;;;;;;;-145.48;100.00;64539.38;6052281;29;20054;-94
2022/11/10 04:50:36;;;;;;;17.00;8.75;;;;;;;-145.48;100.00;64539.38;6045518;29;19939;-94
2022/11/10 04:53:57;;;;;;;14.60;9.15;;;;;;;-145.48;100.00;64539.38;6040944;29;20465;-94
2022/11/10 04:57:18;;;;;;;15.57;9.45;;;;;;;-145.48;100.00;64539.38;6039671;29;20053;-94
2022/11/10 05:00:39;;;;;;;18.08;9.32;;;;;;;-145.48;100.00;64539.38;6038494;29;20064;-94
2022/11/10 05:03:59;;;;;;;19.75;9.20;;;;;;;-145.48;100.00;64539.38;6035479;29;20069;-95
2022/11/10 05:07:20;;;;;;;14.52;9.43;;;;;;;-145.48;100.00;64539.38;6043178;29;20097;-95
2022/11/10 05:10:40;;;;;;;15.30;8.98;;;;;;;-145.48;100.00;64539.38;6046275;29;20049;-94
2022/11/10 05:14:01;;;;;;;12.55;8.75;;;;;;;-145.48;100.00;64539.38;6041806;29;20498;-95
2022/11/10 05:17:21;;;;;;;14.30;9.07;;;;;;;-145.48;100.00;64539.38;6039852;29;20088;-95
2022/11/10 05:20:41;;;;;;;15.27;9.18;;;;;;;-145.48;100.00;64539.38;6036647;29;20510;-95
2022/11/10 05:24:02;;;;;;;17.80;9.13;;;;;;;-145.48;100.00;64539.38;6046155;29;20061;-95
2022/11/10 05:27:22;;;;;;;15.27;9.23;;;;;;;-145.48;100.00;64539.38;6052686;29;20057;-95
2022/11/10 05:30:43;;;;;;;13.93;8.80;;;;;;;-145.48;100.00;64539.38;6044111;29;20045;-95
2022/11/10 05:34:03;;;;;;;;;;;;;;;-145.48;100.00;64539.38;6047926;29;20056;-94
2022/11/10 05:37:24;;;;;;;13.67;9.40;;;;;;;-145.48;100.00;64539.38;6042192;29;20157;-94
2022/11/10 05:40:44;;;;;;;22.15;10.23;;;;;;;-145.48;100.00;64539.38;6037055;29;20057;-94
2022/11/10 05:44:05;;;;;;;14.88;8.90;;;;;;;-145.48;100.00;64539.38;6045365;29;20037;-95
2022/11/10 05:47:25;;;;;;;16.02;8.68;;;;;;;-145.48;100.00;64539.38;6056158;29;20084;-94
2022/11/10 05:50:46;;;;;;;17.65;9.00;;;;;;;-145.48;100.00;64539.38;6045552;29;20061;-94
2022/11/10 05:54:06;;;;;;;17.27;9.10;;;;;;;-145.48;100.00;64539.38;6053316;29;20060;-95
2022/11/10 05:57:26;;;;;;;13.30;8.95;;;;;;;-145.48;100.00;64539.38;6034001;29;20593;-94
2022/11/10 06:00:46;;;;;;;17.95;9.00;;;;;;;-145.48;100.00;64539.38;6055858;29;20085;-95
2022/11/10 06:04:07;;;;;;;16.77;9.27;;;;;;;-145.48;100.00;64539.38;6043792;29;20049;-95
2022/11/10 06:07:28;;;;;;;16.63;8.63;;;;;;;-145.48;100.00;64539.38;6039475;29;20350;-95
2022/11/10 06:10:48;;;;;;;21.05;9.45;;;;;;;-145.48;100.00;64539.38;6036772;29;20064;-95
2022/11/10 06:14:08;;;;;;;17.02;9.70;;;;;;;-145.48;100.00;64539.38;6034791;29;20056;-95
2022/11/10 06:17:29;;;;;;;17.75;9.25;;;;;;;-145.48;100.00;64539.38;6034778;29;20147;-95
2022/11/10 06:20:49;;;;;;;15.23;8.10;;;;;;;-145.48;100.00;64539.38;6036331;29;20061;-94
2022/11/10 06:24:10;;;;;;;16.27;8.52;;;;;;;-145.48;100.00;64539.38;6059609;29;20415;-95
2022/11/10 06:27:30;;;;;;;17.60;8.15;;;;;;;-145.48;100.00;64539.38;6048483;29;20056;-95
2022/11/10 06:30:51;;;;;;;16.00;8.13;;;;;;;-145.48;100.00;64539.38;6050758;29;20406;-95
2022/11/10 06:34:11;;;;;;;22.48;8.82;;;;;;;-145.48;100.00;64539.38;6058424;29;20053;-95
2022/11/10 06:37:31;;;;;;;17.13;8.75;;;;;;;-145.48;100.00;64539.38;6042720;29;20045;-94
2022/11/10 06:40:52;;;;;;;16.23;8.88;;;;;;;-145.48;100.00;64539.38;6043783;29;20045;-95
2022/11/10 06:44:12;;;;;;;16.10;8.38;;;;;;;-145.48;100.00;64539.38;6045642;29;20056;-94
2022/11/10 06:47:33;;;;;;;18.77;8.32;;;;;;;-145.48;100.00;64539.38;6063829;29;20052;-94
2022/11/10 06:50:53;;;;;;;17.17;8.93;;;;;;;-145.48;100.00;64539.38;6035105;29;20088;-95
2022/11/10 06:54:13;;;;;;;18.58;8.55;;;;;;;-145.48;100.00;64539.38;6064750;29;20218;-94
2022/11/10 06:57:40;;;;;;;16.08;8.85;;;;;;;-145.48;100.00;64539.38;6043367;29;20065;-95
2022/11/10 07:01:00;;;;;;;14.77;8.73;;;;;;;-145.48;100.00;64539.38;6050210;29;20519;-95
2022/11/10 07:04:21;;;;;;;18.30;8.85;;;;;;;-145.48;100.00;64539.38;6048531;29;20075;-94
2022/11/10 07:07:42;;;;;;;16.45;9.30;;;;;;;-145.48;100.00;64539.38;6040892;29;20340;-95
2022/11/10 07:11:02;;;;;;;16.83;9.27;;;;;;;-145.48;100.00;64539.38;6038449;29;20052;-94
2022/11/10 07:14:22;;;;;;;19.45;8.52;;;;;;;-145.48;100.00;64539.38;6046755;29;20453;-95
2022/11/10 07:17:43;;;;;;;18.48;9.30;;;;;;;-145.48;100.00;64539.38;6043127;29;20069;-95
2022/11/10 07:21:05;;;;;;;17.08;8.75;;;;;;;-145.48;100.00;64539.38;6043434;29;20061;-95
2022/11/10 07:24:29;;;;;;;18.67;8.38;;;;;;;-145.48;100.00;64539.38;6047512;29;20037;-95
2022/11/10 07:27:54;;;;;;;17.55;8.73;;;;;;;-145.48;100.00;64539.38;6046631;29;20057;-95
2022/11/10 07:31:14;;;;;;;14.77;8.88;;;;;;;-145.48;100.00;64539.38;6041903;29;20595;-95
2022/11/10 07:34:35;;;;;;;16.73;8.40;;;;;;;-145.48;100.00;64539.38;6050097;29;20071;-95
2022/11/10 07:37:57;;;;;;;18.00;9.43;;;;;;;-145.48;100.00;64539.38;6042707;29;20152;-95
2022/11/10 07:41:18;;;;;;;18.88;8.98;;;;;;;-145.48;100.00;64539.38;6054224;29;20477;-95
2022/11/10 07:44:38;;;;;;;16.00;8.82;;;;;;;-145.48;100.00;64539.38;6032003;29;20064;-95
2022/11/10 07:48:09;;;;;;;15.75;7.90;;;;;;;-145.48;100.00;64539.38;6053998;29;20053;-95
2022/11/10 07:51:30;;;;;;;15.60;7.72;;;;;;;-145.48;100.00;64539.38;6030974;29;20050;-95
2022/11/10 07:54:50;;;;;;;24.58;7.82;;;;;;;-145.48;100.00;64539.38;6035917;29;20042;-95
2022/11/10 07:58:13;;;;;;;18.65;7.40;;;;;;;-145.48;100.00;64539.38;6044476;29;20199;-95
2022/11/10 08:01:34;;;;;;;13.30;7.57;;;;;;;-145.48;100.00;64539.38;6049005;29;20420;-96
2022/11/10 08:04:54;;;;;;;13.07;7.90;;;;;;;-145.48;100.00;64539.38;6048690;29;20084;-95
2022/11/10 08:08:15;;;;;;;15.73;8.45;;;;;;;-145.48;100.00;64539.38;6043926;29;20041;-95
2022/11/10 08:11:35;;;;;;;22.27;8.75;;;;;;;-145.48;100.00;64539.38;6042427;29;20080;-95
2022/11/10 08:14:55;;;;;;;14.23;7.82;;;;;;;-145.48;100.00;64539.38;6045630;29;20427;-94
2022/11/10 08:18:22;;;;;;;15.15;7.43;;;;;;;-145.48;100.00;64539.38;6045129;29;20560;-95
2022/11/10 08:21:43;;;;;;;17.85;7.47;;;;;;;-145.48;100.00;64539.38;6048317;29;20061;-95
2022/11/10 08:25:04;;;;;;;16.05;8.02;;;;;;;-145.48;100.00;64539.38;6045595;29;20049;-96
2022/11/10 08:28:26;;;;;;;14.40;7.72;;;;;;;-145.48;100.00;64539.38;6049683;29;20049;-96
2022/11/10 08:31:46;;;;;;;16.50;8.20;;;;;;;-145.48;100.00;64539.38;6037487;29;20486;-95
2022/11/10 08:35:07;;;;;;;16.80;8.38;;;;;;;-145.48;100.00;64539.38;6046578;29;20140;-96
2022/11/10 08:38:28;;;;;;;14.48;7.22;;;;;;;-145.48;100.00;64539.38;6054995;29;20515;-95
2022/11/10 08:41:48;;;;;;;16.77;7.40;;;;;;;-145.48;100.00;64539.38;6051934;29;20045;-95
2022/11/10 08:45:09;;;;;;;14.55;8.07;;;;;;;-145.48;100.00;64539.38;6038538;29;20081;-95
2022/11/10 08:48:29;;;;;;;;;;;;;;;-145.48;100.00;64539.38;6039934;29;20729;-96
2022/11/10 08:51:49;;;;;;;15.85;7.80;;;;;;;-145.48;100.00;64539.38;6036169;29;19932;-96
2022/11/10 08:55:10;;;;;;;15.95;8.05;;;;;;;-145.48;100.00;64539.38;6044538;29;20547;-95
2022/11/10 08:58:30;;;;;;;13.73;7.47;;;;;;;-145.48;100.00;64539.38;6032164;29;20049;-96
2022/11/10 09:01:51;;;;;;;10.50;7.43;;;;;;;-145.48;100.00;64539.38;6035902;29;20075;-95
2022/11/10 09:05:11;;;;;;;16.15;7.82;;;;;;;-145.48;100.00;64539.38;6035205;29;20575;-95
2022/11/10 09:08:35;;;;;;;16.23;7.55;;;;;;;-145.48;100.00;64539.38;6038514;29;20083;-96
2022/11/10 09:11:55;;;;;;;10.68;6.22;;;;;;;-145.48;100.00;64539.38;6037631;29;20045;-95
2022/11/10 09:15:15;;;;;;;14.18;6.88;;;;;;;-145.48;100.00;64539.38;6031621;29;20061;-96
2022/11/10 09:18:35;;;;;;;12.88;6.30;;;;;;;-145.48;100.00;64539.38;6032120;29;20041;-95
2022/11/10 09:21:56;;;;;;;9.13;6.00;;;;;;;-145.48;100.00;64539.38;6032089;29;20057;-96
2022/11/10 09:25:16;;;;;;;11.02;5.80;;;;;;;-145.48;100.00;64539.38;6036136;29;20064;-96
2022/11/10 09:28:37;;;;;;;;;;;;;;;-145.48;100.00;64539.38;6034032;29;20503;-95
2022/11/10 09:31:57;;;;;;;11.70;5.65;;;;;;;-145.48;100.00;64539.38;6042567;29;19927;-95
2022/11/10 09:35:18;;;;;;;14.10;6.22;;;;;;;-145.48;100.00;64539.38;6039096;29;20525;-94
2022/11/10 09:38:38;;;;;;;11.75;5.90;;;;;;;-145.48;100.00;64539.38;6037508;29;20061;-95
2022/11/10 09:41:59;;;;;;;10.50;5.80;;;;;;;-145.48;100.00;64539.38;6042881;29;20050;-95
2022/11/10 09:45:25;;;;;;;14.73;6.20;;;;;;;-145.48;100.00;64539.38;6043634;29;20061;-95
2022/11/10 09:49:03;;;;;;;13.02;6.03;;;;;;;-145.48;100.00;64539.38;6048629;29;20053;-96
2022/11/10 09:52:28;;;;;;;12.77;5.35;;;;;;;-145.48;100.00;64539.38;6036896;29;20465;-95
2022/11/10 09:55:50;;;;;;;14.27;6.00;;;;;;;-145.48;100.00;64539.38;6045935;29;20127;-96
2022/11/10 09:59:22;;;;;;;13.15;5.47;;;;;;;-145.48;100.00;64539.38;6040776;29;20520;-96
2022/11/10 10:02:58;;;;;;;9.25;5.35;;;;;;;-145.48;100.00;64539.38;6049920;29;20056;-95
2022/11/10 10:06:20;;;;;;;11.50;5.00;;;;;;;-145.48;100.00;64539.38;6045257;29;20053;-95
2022/11/10 10:10:20;;;;;;;11.32;4.95;;;;;;;-145.48;100.00;64539.38;6033605;29;20061;-95
2022/11/10 10:13:50;;;;;;;11.80;4.95;;;;;;;-145.48;100.00;64539.38;6035077;29;20057;-95
2022/11/10 10:17:51;;;;;;;11.00;4.85;;;;;;;-145.48;100.00;64539.38;6029577;29;20100;-96
2022/11/10 10:21:23;;;;;;;14.43;5.07;;;;;;;-145.48;100.00;64539.38;6033548;29;20073;-96
2022/11/10 10:24:44;;;;;;;10.52;4.65;;;;;;;-145.48;100.00;64539.38;6030844;29;20752;-95
2022/11/10 10:28:23;;;;;;;13.10;4.95;;;;;;;-145.48;100.00;64539.38;6036038;29;20556;-95
2022/11/10 10:31:51;;;;;;;7.38;4.90;;;;;;;-145.48;100.00;64539.38;6030680;29;20046;-95
2022/11/10 10:35:18;;;;;;;10.30;3.95;;;;;;;-145.48;100.00;64539.38;6039125;29;20783;-95
2022/11/10 10:38:39;;;;;;;9.68;3.92;;;;;;;-145.48;100.00;64539.38;6041311;29;20504;-95
2022/11/10 10:42:00;;;;;;;11.55;3.85;;;;;;;-145.48;100.00;64539.38;6041983;29;20057;-95
2022/11/10 10:45:22;;;;;;;8.75;3.50;;;;;;;-145.48;100.00;64539.38;6031768;29;20555;-96
2022/11/10 10:48:42;;;;;;;11.57;3.15;;;;;;;-145.48;100.00;64539.38;6030374;29;20053;-95
2022/11/10 10:52:16;;;;;;;11.27;4.05;;;;;;;-145.48;100.00;64539.38;6030666;29;20061;-96
2022/11/10 10:55:37;;;;;;;12.23;4.10;;;;;;;-145.48;100.00;64539.38;6036317;29;20049;-95
2022/11/10 10:59:04;;;;;;;8.10;3.63;;;;;;;-145.48;100.00;64539.38;6037907;29;20053;-95
2022/11/10 11:02:31;;;;;;;7.88;3.38;;;;;;;-145.48;100.00;64539.38;6039795;29;20049;-95
2022/11/10 11:06:15;;;;;;;10.63;4.30;;;;;;;-145.48;100.00;64539.38;6029248;29;20049;-95
2022/11/10 11:09:41;;;;;;;9.50;3.53;;;;;;;-145.48;100.00;64539.38;6046551;29;20057;-95
2022/11/10 11:13:21;;;;;;;8.95;3.33;;;;;;;-145.48;100.00;64539.38;6036086;29;20077;-96
2022/11/10 11:17:17;;;;;;;8.77;3.25;;;;;;;-145.48;100.00;64539.38;6035554;29;20061;-95
2022/11/10 11:20:56;;;;;;;12.20;4.30;;;;;;;-145.48;100.00;64539.38;6050584;29;20057;-96
2022/11/10 11:24:40;;;;;;;9.55;3.38;;;;;;;-145.48;100.00;64539.38;6051287;29;20053;-95
2022/11/10 11:28:37;;;;;;;11.73;3.13;;;;;;;-145.48;100.00;64539.38;6052171;29;20494;-95
2022/11/10 11:32:24;;;;;;;7.47;2.22;;;;;;;-145.48;100.00;64539.38;6052359;29;20044;-96
2022/11/10 11:35:52;;;;;;;10.40;2.72;;;;;;;-145.48;100.00;64539.38;6053846;29;20072;-95
2022/11/10 11:39:35;;;;;;;8.68;2.42;;;;;;;-145.48;100.00;64539.38;6055974;29;20085;-95
2022/11/10 11:43:23;;;;;;;10.73;2.80;;;;;;;-145.48;100.00;64539.38;6050049;29;20049;-95
2022/11/10 11:47:02;;;;;;;9.40;2.25;;;;;;;-145.48;100.00;64539.38;6046789;29;20104;-95
2022/11/10 11:50:56;;;;;;;6.20;2.08;;;;;;;-145.48;100.00;64539.38;6028688;29;20453;-95
2022/11/10 11:54:49;;;;;;;7.65;2.33;;;;;;;-145.48;100.00;64539.38;6035040;29;20045;-96
2022/11/10 11:58:27;;;;;;;7.53;2.22;;;;;;;-145.48;100.00;64539.38;6038789;29;20424;-96
2022/11/10 12:02:12;;;;;;;6.43;2.20;;;;;;;-145.48;100.00;64539.38;6040371;29;20049;-95
2022/11/10 12:05:51;;;;;;;4.85;2.05;;;;;;;-145.48;100.00;64539.38;6038175;29;20061;-95
2022/11/10 12:09:29;;;;;;;7.85;2.17;;;;;;;-145.48;100.00;64539.38;6048543;29;20060;-95
2022/11/10 12:12:59;;;;;;;10.18;2.25;;;;;;;-145.48;100.00;64539.38;6037884;29;20045;-96
2022/11/10 12:16:29;;;;;;;8.30;2.28;;;;;;;-145.48;100.00;64539.38;6034404;29;20081;-95
2022/11/10 12:20:13;;;;;;;8.98;2.38;;;;;;;-145.48;100.00;64539.38;6041313;29;20045;-95
2022/11/10 12:24:02;;;;;;;7.15;2.00;;;;;;;-145.48;100.00;64539.38;6042123;29;20057;-96
2022/11/10 12:27:32;;;;;;;8.27;1.70;;;;;;;-145.48;100.00;64539.38;6042064;29;20053;-95
2022/11/10 12:31:01;;;;;;;5.85;1.83;;;;;;;-145.48;100.00;64539.38;6043058;29;20049;-95
2022/11/10 12:34:41;;;;;;;7.25;2.10;;;;;;;-145.48;100.00;64539.38;6031354;29;20453;-95
2022/11/10 12:38:11;;;;;;;12.45;3.08;;;;;;;-145.48;100.00;64539.38;6037344;29;20057;-95
2022/11/10 12:41:54;;;;;;;7.97;2.10;;;;;;;-145.48;100.00;64539.38;6031296;29;20505;-96
2022/11/10 12:45:14;;;;;;;7.28;1.92;;;;;;;-145.48;100.00;64539.38;6038189;29;20496;-95
2022/11/10 12:48:59;;;;;;;5.65;1.70;;;;;;;-145.48;100.00;64539.38;6037323;29;20080;-96
2022/11/10 12:52:26;;;;;;;8.68;2.28;;;;;;;-145.48;100.00;64539.38;6039243;29;20053;-95
2022/11/10 12:56:04;;;;;;;6.60;1.67;;;;;;;-145.48;100.00;64539.38;6036595;29;20383;-95
2022/11/10 12:59:35;;;;;;;8.38;1.98;;;;;;;-145.48;100.00;64539.38;6048068;29;20076;-95
2022/11/10 13:02:57;;;;;;;7.65;1.92;;;;;;;-145.48;100.00;64539.38;6053664;29;20061;-95
2022/11/10 13:06:27;;;;;;;7.47;1.77;;;;;;;-145.48;100.00;64539.38;6044674;29;20612;-95
2022/11/10 13:09:47;;;;;;;6.10;2.50;;;;;;;-145.48;100.00;64539.38;6040540;29;20045;-95
2022/11/10 13:13:14;;;;;;;13.30;2.03;;;;;;;-145.48;100.00;64539.38;6046871;29;20384;-95
2022/11/10 13:16:41;;;;;;;12.55;1.85;;;;;;;-145.48;100.00;64539.38;6045067;29;20060;-94
2022/11/10 13:20:01;;;;;;;8.80;2.00;;;;;;;-145.48;100.00;64539.38;6033647;29;20559;-95
2022/11/10 13:23:42;;;;;;;8.98;1.95;;;;;;;-145.48;100.00;64539.38;6051220;29;20701;-95
2022/11/10 13:27:37;;;;;;;8.20;1.42;;;;;;;-145.48;100.00;64539.38;6047957;29;20499;-95
2022/11/10 13:30:57;;;;;;;5.85;1.48;;;;;;;-145.48;100.00;64539.38;6054635;29;20457;-95
2022/11/10 13:34:17;;;;;;;8.98;1.85;;;;;;;-145.48;100.00;64539.38;6040885;29;20069;-96
2022/11/10 13:37:38;;;;;;;6.13;1.52;;;;;;;-145.48;100.00;64539.38;6054414;29;20048;-96
2022/11/10 13:41:17;;;;;;;13.07;2.03;;;;;;;-145.48;100.00;64539.38;6053904;29;20507;-95
2022/11/10 13:44:46;;;;;;;6.60;2.03;;;;;;;-145.48;100.00;64539.38;6045954;29;20489;-95
2022/11/10 13:48:11;;;;;;;9.35;2.30;;;;;;;-145.48;100.00;64539.38;6035511;29;20495;-95
2022/11/10 13:51:49;;;;;;;12.60;2.75;;;;;;;-145.48;100.00;64539.38;6039878;29;20040;-96
2022/11/10 13:55:44;;;;;;;7.20;1.70;;;;;;;-145.48;100.00;64539.38;6037005;29;20520;-95
2022/11/10 13:59:21;;;;;;;7.93;1.70;;;;;;;-145.48;100.00;64539.38;6043039;29;20053;-95
2022/11/10 14:03:00;;;;;;;6.72;1.73;;;;;;;-145.48;100.00;64539.38;6049735;29;20053;-96
2022/11/10 14:06:24;;;;;;;7.95;1.92;;;;;;;-145.48;100.00;64539.38;6047273;29;20060;-96
2022/11/10 14:09:50;;;;;;;7.07;1.90;;;;;;;-145.48;100.00;64539.38;6043268;29;20431;-96
2022/11/10 14:13:15;;;;;;;8.55;1.70;;;;;;;-145.48;100.00;64539.38;6035309;29;20550;-96
2022/11/10 14:16:40;;;;;;;7.70;1.75;;;;;;;-145.48;100.00;64539.38;6031625;29;20046;-96
2022/11/10 14:20:02;;;;;;;6.35;1.60;;;;;;;-145.48;100.00;64539.38;6036282;29;20415;-96
2022/11/10 14:23:30;;;;;;;7.55;1.90;;;;;;;-145.48;100.00;64539.38;6037223;29;20060;-95
2022/11/10 14:26:53;;;;;;;10.13;1.98;;;;;;;-145.48;100.00;64539.38;6047938;29;20040;-96
2022/11/10 14:30:20;;;;;;;7.18;1.75;;;;;;;-145.48;100.00;64539.38;6051675;29;20511;-96
2022/11/10 14:33:40;;;;;;;7.35;1.70;;;;;;;-145.48;100.00;64539.38;6039198;29;20060;-96
2022/11/10 14:37:02;;;;;;;10.40;1.75;;;;;;;-145.48;100.00;64539.38;6030196;29;20091;-96
2022/11/10 14:40:23;;;;;;;12.57;2.05;;;;;;;-145.48;100.00;64539.38;6032839;29;20564;-96
2022/11/10 14:43:58;;;;;;;6.43;1.80;;;;;;;-145.48;100.00;64539.38;6031325;29;20042;-95
2022/11/10 14:47:29;;;;;;;7.93;2.42;;;;;;;-145.48;100.00;64539.38;6040260;29;20488;-95
2022/11/10 14:50:52;;;;;;;5.75;1.77;;;;;;;-145.48;100.00;64539.38;6040295;29;20042;-96
2022/11/10 14:54:22;;;;;;;8.75;2.08;;;;;;;-145.48;100.00;64539.38;6036575;29;20057;-96
2022/11/10 14:57:49;;;;;;;8.68;1.80;;;;;;;-145.48;100.00;64539.38;6041875;29;20077;-96
2022/11/10 15:01:24;;;;;;;5.43;1.70;;;;;;;-145.48;100.00;64539.38;6061275;29;20084;-96
2022/11/10 15:04:49;;;;;;;7.47;1.63;;;;;;;-145.48;100.00;64539.38;6049482;29;20776;-95
2022/11/10 15:08:15;;;;;;;6.72;1.70;;;;;;;-145.48;100.00;64539.38;6049426;29;20507;-96
2022/11/10 15:12:04;;;;;;;9.15;2.00;;;;;;;-145.48;100.00;64539.38;6049517;29;20487;-96
2022/11/10 15:15:24;;;;;;;6.38;1.40;;;;;;;-145.48;100.00;64539.38;6036842;29;20061;-96
2022/11/10 15:18:47;;;;;;;11.85;2.03;;;;;;;-145.48;100.00;64539.38;6048815;29;20065;-96
2022/11/10 15:22:35;;;;;;;6.35;1.52;;;;;;;-145.48;100.00;64539.38;6053177;29;20056;-96
2022/11/10 15:25:55;;;;;;;11.38;1.90;;;;;;;-145.48;100.00;64539.38;6038253;29;20500;-96
2022/11/10 15:29:21;;;;;;;6.32;1.95;;;;;;;-145.48;100.00;64539.38;6048153;29;20057;-96
2022/11/10 15:32:42;;;;;;;8.82;1.65;;;;;;;-145.48;100.00;64539.38;6044893;29;20057;-95
2022/11/10 15:36:16;;;;;;;7.40;1.52;;;;;;;-145.48;100.00;64539.38;6036736;29;20504;-95
2022/11/10 15:39:36;;;;;;;7.57;1.48;;;;;;;-145.48;100.00;64539.38;6034653;29;20052;-95
2022/11/10 15:43:19;;;;;;;7.15;1.73;;;;;;;-145.48;100.00;64539.38;6041452;29;20049;-96
2022/11/10 15:46:41;;;;;;;7.90;1.92;;;;;;;-145.48;100.00;64539.38;6038730;29;20045;-96